sensor_id;sensor_type;location;lat;lon;timestamp;pressure;altitude;pressure_sealevel;temperature;humidity
78685;BME280;68002;52.310;6.990;2023-04-06T00:01:43;101509.81;;;1.60;61.27
78685;BME280;68002;52.310;6.990;2023-04-06T00:04:08;101518.66;;;1.59;60.44
78685;BME280;68002;52.310;6.990;2023-04-06T00:06:33;101508.34;;;1.53;60.36
78685;BME280;68002;52.310;6.990;2023-04-06T00:08:59;101513.63;;;1.53;60.23
78685;BME280;68002;52.310;6.990;2023-04-06T00:11:25;101499.66;;;1.51;60.42
78685;BME280;68002;52.310;6.990;2023-04-06T00:13:50;101505.78;;;1.52;60.94
78685;BME280;68002;52.310;6.990;2023-04-06T00:16:15;101505.97;;;1.47;60.31
78685;BME280;68002;52.310;6.990;2023-04-06T00:18:40;101499.97;;;1.44;61.17
78685;BME280;68002;52.310;6.990;2023-04-06T00:21:06;101504.38;;;1.43;61.38
78685;BME280;68002;52.310;6.990;2023-04-06T00:23:31;101501.88;;;1.40;61.01
78685;BME280;68002;52.310;6.990;2023-04-06T00:25:56;101507.00;;;1.43;61.22
78685;BME280;68002;52.310;6.990;2023-04-06T00:28:22;101507.16;;;1.40;60.64
78685;BME280;68002;52.310;6.990;2023-04-06T00:30:47;101500.16;;;1.39;59.90
78685;BME280;68002;52.310;6.990;2023-04-06T00:33:12;101492.31;;;1.38;60.94
78685;BME280;68002;52.310;6.990;2023-04-06T00:35:37;101501.31;;;1.34;60.69
78685;BME280;68002;52.310;6.990;2023-04-06T00:38:03;101490.88;;;1.31;61.27
78685;BME280;68002;52.310;6.990;2023-04-06T00:40:28;101489.34;;;1.25;61.18
78685;BME280;68002;52.310;6.990;2023-04-06T00:42:53;101482.47;;;1.23;61.64
78685;BME280;68002;52.310;6.990;2023-04-06T00:45:19;101485.03;;;1.24;61.92
78685;BME280;68002;52.310;6.990;2023-04-06T00:47:44;101477.13;;;1.24;61.20
78685;BME280;68002;52.310;6.990;2023-04-06T00:50:09;101469.31;;;1.21;62.67
78685;BME280;68002;52.310;6.990;2023-04-06T00:52:35;101469.47;;;1.18;61.42
78685;BME280;68002;52.310;6.990;2023-04-06T00:55:00;101460.97;;;1.12;63.22
78685;BME280;68002;52.310;6.990;2023-04-06T00:57:25;101467.94;;;1.13;62.11
78685;BME280;68002;52.310;6.990;2023-04-06T00:59:52;101468.06;;;1.10;61.52
78685;BME280;68002;52.310;6.990;2023-04-06T01:02:17;101457.97;;;0.99;61.99
78685;BME280;68002;52.310;6.990;2023-04-06T01:04:42;101461.66;;;0.95;61.73
78685;BME280;68002;52.310;6.990;2023-04-06T01:07:08;101468.56;;;0.97;62.42
78685;BME280;68002;52.310;6.990;2023-04-06T01:09:33;101459.94;;;0.94;62.08
78685;BME280;68002;52.310;6.990;2023-04-06T01:11:58;101456.66;;;0.89;62.01
78685;BME280;68002;52.310;6.990;2023-04-06T01:14:24;101455.06;;;0.85;62.65
78685;BME280;68002;52.310;6.990;2023-04-06T01:16:50;101454.53;;;0.77;63.30
78685;BME280;68002;52.310;6.990;2023-04-06T01:19:15;101445.69;;;0.78;62.36
78685;BME280;68002;52.310;6.990;2023-04-06T01:21:41;101444.75;;;0.79;62.52
78685;BME280;68002;52.310;6.990;2023-04-06T01:24:07;101445.63;;;0.79;62.53
78685;BME280;68002;52.310;6.990;2023-04-06T01:26:33;101444.53;;;0.85;62.45
78685;BME280;68002;52.310;6.990;2023-04-06T01:29:00;101446.13;;;0.89;64.11
78685;BME280;68002;52.310;6.990;2023-04-06T01:31:25;101454.16;;;0.86;63.98
78685;BME280;68002;52.310;6.990;2023-04-06T01:33:51;101449.91;;;0.82;63.64
78685;BME280;68002;52.310;6.990;2023-04-06T01:36:16;101442.19;;;0.77;64.28
78685;BME280;68002;52.310;6.990;2023-04-06T01:38:42;101437.22;;;0.71;64.77
78685;BME280;68002;52.310;6.990;2023-04-06T01:41:08;101430.44;;;0.64;63.64
78685;BME280;68002;52.310;6.990;2023-04-06T01:43:33;101434.16;;;0.60;63.40
78685;BME280;68002;52.310;6.990;2023-04-06T01:45:59;101433.53;;;0.54;63.39
78685;BME280;68002;52.310;6.990;2023-04-06T01:48:25;101430.28;;;0.47;64.28
78685;BME280;68002;52.310;6.990;2023-04-06T01:50:50;101426.94;;;0.44;64.25
78685;BME280;68002;52.310;6.990;2023-04-06T01:53:15;101429.66;;;0.41;64.27
78685;BME280;68002;52.310;6.990;2023-04-06T01:55:40;101425.44;;;0.37;64.81
78685;BME280;68002;52.310;6.990;2023-04-06T01:58:05;101425.44;;;0.37;64.34
78685;BME280;68002;52.310;6.990;2023-04-06T02:00:31;101423.72;;;0.36;64.27
78685;BME280;68002;52.310;6.990;2023-04-06T02:02:56;101429.13;;;0.33;64.77
78685;BME280;68002;52.310;6.990;2023-04-06T02:05:21;101422.94;;;0.34;63.52
78685;BME280;68002;52.310;6.990;2023-04-06T02:07:46;101425.63;;;0.32;65.61
78685;BME280;68002;52.310;6.990;2023-04-06T02:10:13;101418.59;;;0.33;65.99
78685;BME280;68002;52.310;6.990;2023-04-06T02:12:39;101418.53;;;0.34;66.86
78685;BME280;68002;52.310;6.990;2023-04-06T02:15:04;101426.28;;;0.37;66.66
78685;BME280;68002;52.310;6.990;2023-04-06T02:17:29;101409.97;;;0.29;65.96
78685;BME280;68002;52.310;6.990;2023-04-06T02:19:55;101416.38;;;0.22;65.71
78685;BME280;68002;52.310;6.990;2023-04-06T02:22:20;101424.69;;;0.12;66.46
78685;BME280;68002;52.310;6.990;2023-04-06T02:24:45;101420.34;;;0.11;65.55
78685;BME280;68002;52.310;6.990;2023-04-06T02:27:10;101413.28;;;0.11;65.88
78685;BME280;68002;52.310;6.990;2023-04-06T02:29:36;101408.81;;;0.15;66.16
78685;BME280;68002;52.310;6.990;2023-04-06T02:32:01;101407.13;;;0.12;66.56
78685;BME280;68002;52.310;6.990;2023-04-06T02:34:26;101407.31;;;0.08;65.97
78685;BME280;68002;52.310;6.990;2023-04-06T02:36:51;101409.03;;;0.09;66.25
78685;BME280;68002;52.310;6.990;2023-04-06T02:39:17;101411.81;;;0.04;66.36
78685;BME280;68002;52.310;6.990;2023-04-06T02:41:42;101409.13;;;0.06;65.19
78685;BME280;68002;52.310;6.990;2023-04-06T02:44:08;101404.00;;;0.03;66.87
78685;BME280;68002;52.310;6.990;2023-04-06T02:46:33;101400.69;;;-0.03;67.00
78685;BME280;68002;52.310;6.990;2023-04-06T02:48:58;101392.00;;;-0.05;66.09
78685;BME280;68002;52.310;6.990;2023-04-06T02:51:24;101391.34;;;-0.10;66.33
78685;BME280;68002;52.310;6.990;2023-04-06T02:53:49;101394.94;;;-0.12;67.70
78685;BME280;68002;52.310;6.990;2023-04-06T02:56:14;101395.06;;;-0.15;67.84
78685;BME280;68002;52.310;6.990;2023-04-06T02:58:39;101395.22;;;-0.20;66.49
78685;BME280;68002;52.310;6.990;2023-04-06T03:01:04;101396.44;;;-0.28;67.22
78685;BME280;68002;52.310;6.990;2023-04-06T03:03:30;101399.13;;;-0.30;68.26
78685;BME280;68002;52.310;6.990;2023-04-06T03:05:55;101387.81;;;-0.32;66.88
78685;BME280;68002;52.310;6.990;2023-04-06T03:08:20;101385.97;;;-0.30;65.73
78685;BME280;68002;52.310;6.990;2023-04-06T03:10:45;101392.94;;;-0.29;66.54
78685;BME280;68002;52.310;6.990;2023-04-06T03:13:11;101387.69;;;-0.29;66.96
78685;BME280;68002;52.310;6.990;2023-04-06T03:15:36;101393.00;;;-0.30;68.56
78685;BME280;68002;52.310;6.990;2023-04-06T03:18:01;101393.94;;;-0.31;67.01
78685;BME280;68002;52.310;6.990;2023-04-06T03:20:26;101395.75;;;-0.33;66.20
78685;BME280;68002;52.310;6.990;2023-04-06T03:22:51;101390.53;;;-0.35;66.63
78685;BME280;68002;52.310;6.990;2023-04-06T03:25:17;101391.56;;;-0.39;65.96
78685;BME280;68002;52.310;6.990;2023-04-06T03:27:42;101379.34;;;-0.40;66.70
78685;BME280;68002;52.310;6.990;2023-04-06T03:30:07;101384.72;;;-0.43;66.36
78685;BME280;68002;52.310;6.990;2023-04-06T03:32:33;101384.72;;;-0.43;66.21
78685;BME280;68002;52.310;6.990;2023-04-06T03:34:58;101366.72;;;-0.53;65.77
78685;BME280;68002;52.310;6.990;2023-04-06T03:37:23;101384.88;;;-0.47;68.07
78685;BME280;68002;52.310;6.990;2023-04-06T03:39:48;101385.78;;;-0.48;68.91
78685;BME280;68002;52.310;6.990;2023-04-06T03:42:13;101382.44;;;-0.52;68.12
78685;BME280;68002;52.310;6.990;2023-04-06T03:44:39;101383.31;;;-0.53;67.52
78685;BME280;68002;52.310;6.990;2023-04-06T03:47:04;101379.16;;;-0.58;65.78
78685;BME280;68002;52.310;6.990;2023-04-06T03:49:29;101384.47;;;-0.60;65.98
78685;BME280;68002;52.310;6.990;2023-04-06T03:51:56;101386.28;;;-0.62;65.98
78685;BME280;68002;52.310;6.990;2023-04-06T03:54:21;101384.69;;;-0.66;66.75
78685;BME280;68002;52.310;6.990;2023-04-06T03:56:46;101385.53;;;-0.65;67.33
78685;BME280;68002;52.310;6.990;2023-04-06T03:59:12;101387.31;;;-0.66;66.15
78685;BME280;68002;52.310;6.990;2023-04-06T04:01:37;101384.75;;;-0.67;66.08
78685;BME280;68002;52.310;6.990;2023-04-06T04:04:02;101390.00;;;-0.67;67.34
78685;BME280;68002;52.310;6.990;2023-04-06T04:06:27;101385.59;;;-0.67;66.54
78685;BME280;68002;52.310;6.990;2023-04-06T04:08:52;101382.97;;;-0.67;65.88
78685;BME280;68002;52.310;6.990;2023-04-06T04:11:17;101383.91;;;-0.68;67.35
78685;BME280;68002;52.310;6.990;2023-04-06T04:13:43;101376.91;;;-0.69;68.70
78685;BME280;68002;52.310;6.990;2023-04-06T04:16:08;101382.13;;;-0.67;68.10
78685;BME280;68002;52.310;6.990;2023-04-06T04:18:33;101384.75;;;-0.67;69.21
78685;BME280;68002;52.310;6.990;2023-04-06T04:20:58;101375.31;;;-0.73;66.50
78685;BME280;68002;52.310;6.990;2023-04-06T04:23:24;101384.13;;;-0.74;67.00
78685;BME280;68002;52.310;6.990;2023-04-06T04:25:49;101378.94;;;-0.77;67.05
78685;BME280;68002;52.310;6.990;2023-04-06T04:28:14;101382.50;;;-0.78;67.74
78685;BME280;68002;52.310;6.990;2023-04-06T04:30:39;101381.69;;;-0.80;69.36
78685;BME280;68002;52.310;6.990;2023-04-06T04:33:04;101380.84;;;-0.80;67.63
78685;BME280;68002;52.310;6.990;2023-04-06T04:35:30;101374.81;;;-0.82;67.04
78685;BME280;68002;52.310;6.990;2023-04-06T04:37:55;101385.31;;;-0.82;66.95
78685;BME280;68002;52.310;6.990;2023-04-06T04:40:20;101383.63;;;-0.85;67.55
78685;BME280;68002;52.310;6.990;2023-04-06T04:42:45;101385.47;;;-0.87;67.58
78685;BME280;68002;52.310;6.990;2023-04-06T04:45:10;101382.03;;;-0.89;67.10
78685;BME280;68002;52.310;6.990;2023-04-06T04:47:36;101376.03;;;-0.92;67.41
78685;BME280;68002;52.310;6.990;2023-04-06T04:50:01;101381.00;;;-0.85;67.35
78685;BME280;68002;52.310;6.990;2023-04-06T04:52:26;101384.44;;;-0.83;67.56
78685;BME280;68002;52.310;6.990;2023-04-06T04:54:51;101385.94;;;-0.76;70.75
78685;BME280;68002;52.310;6.990;2023-04-06T04:57:16;101386.75;;;-0.74;70.17
78685;BME280;68002;52.310;6.990;2023-04-06T04:59:43;101389.56;;;-0.80;69.19
78685;BME280;68002;52.310;6.990;2023-04-06T05:02:08;101387.13;;;-0.84;70.04
78685;BME280;68002;52.310;6.990;2023-04-06T05:04:33;101373.34;;;-0.91;68.60
78685;BME280;68002;52.310;6.990;2023-04-06T05:07:06;101386.53;;;-0.92;69.04
78685;BME280;68002;52.310;6.990;2023-04-06T05:09:32;101383.03;;;-0.93;69.45
78685;BME280;68002;52.310;6.990;2023-04-06T05:11:58;101369.97;;;-0.94;69.87
78685;BME280;68002;52.310;6.990;2023-04-06T05:14:23;101378.50;;;-0.88;68.45
78685;BME280;68002;52.310;6.990;2023-04-06T05:16:49;101372.31;;;-0.87;70.48
78685;BME280;68002;52.310;6.990;2023-04-06T05:19:14;101368.56;;;-0.80;69.97
78685;BME280;68002;52.310;6.990;2023-04-06T05:21:39;101370.13;;;-0.74;67.54
78685;BME280;68002;52.310;6.990;2023-04-06T05:24:05;101364.94;;;-0.53;68.31
78685;BME280;68002;52.310;6.990;2023-04-06T05:26:30;101361.41;;;-0.29;67.70
78685;BME280;68002;52.310;6.990;2023-04-06T05:28:55;101360.41;;;-0.03;67.46
78685;BME280;68002;52.310;6.990;2023-04-06T05:31:21;101356.97;;;0.17;68.03
78685;BME280;68002;52.310;6.990;2023-04-06T05:33:46;101350.84;;;0.38;69.53
78685;BME280;68002;52.310;6.990;2023-04-06T05:36:11;101351.94;;;0.54;68.85
78685;BME280;68002;52.310;6.990;2023-04-06T05:38:36;101358.25;;;0.70;68.25
78685;BME280;68002;52.310;6.990;2023-04-06T05:41:01;101353.16;;;0.87;68.43
78685;BME280;68002;52.310;6.990;2023-04-06T05:43:27;101359.47;;;1.03;68.07
78685;BME280;68002;52.310;6.990;2023-04-06T05:45:52;101347.22;;;1.22;68.30
78685;BME280;68002;52.310;6.990;2023-04-06T05:48:17;101346.47;;;1.39;68.75
78685;BME280;68002;52.310;6.990;2023-04-06T05:50:42;101349.63;;;1.65;68.52
78685;BME280;68002;52.310;6.990;2023-04-06T05:53:07;101348.47;;;1.89;68.18
78685;BME280;68002;52.310;6.990;2023-04-06T05:55:33;101350.97;;;2.11;67.62
78685;BME280;68002;52.310;6.990;2023-04-06T05:57:58;101354.16;;;2.36;66.76
78685;BME280;68002;52.310;6.990;2023-04-06T06:00:23;101347.72;;;2.59;66.86
78685;BME280;68002;52.310;6.990;2023-04-06T06:02:48;101353.63;;;2.81;66.34
78685;BME280;68002;52.310;6.990;2023-04-06T06:05:14;101355.03;;;3.05;65.91
78685;BME280;68002;52.310;6.990;2023-04-06T06:07:39;101351.72;;;3.34;65.54
78685;BME280;68002;52.310;6.990;2023-04-06T06:10:04;101341.88;;;3.53;64.96
78685;BME280;68002;52.310;6.990;2023-04-06T06:12:30;101338.16;;;3.73;64.20
78685;BME280;68002;52.310;6.990;2023-04-06T06:14:55;101340.66;;;3.91;63.92
78685;BME280;68002;52.310;6.990;2023-04-06T06:17:20;101344.16;;;4.07;63.54
78685;BME280;68002;52.310;6.990;2023-04-06T06:19:45;101337.72;;;4.27;63.35
78685;BME280;68002;52.310;6.990;2023-04-06T06:22:11;101344.34;;;4.50;62.58
78685;BME280;68002;52.310;6.990;2023-04-06T06:24:36;101334.38;;;4.69;62.17
78685;BME280;68002;52.310;6.990;2023-04-06T06:27:01;101332.56;;;4.85;61.75
78685;BME280;68002;52.310;6.990;2023-04-06T06:29:26;101333.06;;;5.05;61.32
78685;BME280;68002;52.310;6.990;2023-04-06T06:31:51;101332.03;;;5.22;60.40
78685;BME280;68002;52.310;6.990;2023-04-06T06:34:17;101329.78;;;5.44;60.52
78685;BME280;68002;52.310;6.990;2023-04-06T06:36:42;101326.47;;;5.69;59.79
78685;BME280;68002;52.310;6.990;2023-04-06T06:39:07;101324.19;;;5.91;58.11
78685;BME280;68002;52.310;6.990;2023-04-06T06:41:32;101332.44;;;6.27;57.87
78685;BME280;68002;52.310;6.990;2023-04-06T06:43:58;101330.75;;;6.53;57.02
78685;BME280;68002;52.310;6.990;2023-04-06T06:46:23;101330.59;;;6.68;56.00
78685;BME280;68002;52.310;6.990;2023-04-06T06:48:48;101335.31;;;6.90;55.80
78685;BME280;68002;52.310;6.990;2023-04-06T06:51:13;101333.84;;;7.11;54.34
78685;BME280;68002;52.310;6.990;2023-04-06T06:53:38;101328.31;;;7.14;53.62
78685;BME280;68002;52.310;6.990;2023-04-06T06:56:04;101325.22;;;7.20;53.56
78685;BME280;68002;52.310;6.990;2023-04-06T06:58:29;101325.03;;;7.36;52.26
78685;BME280;68002;52.310;6.990;2023-04-06T07:00:58;101327.56;;;7.62;52.88
78685;BME280;68002;52.310;6.990;2023-04-06T07:03:23;101319.50;;;7.87;53.09
78685;BME280;68002;52.310;6.990;2023-04-06T07:05:49;101325.03;;;7.97;50.98
78685;BME280;68002;52.310;6.990;2023-04-06T07:08:14;101321.94;;;8.03;51.67
78685;BME280;68002;52.310;6.990;2023-04-06T07:10:39;101319.66;;;8.09;52.08
78685;BME280;68002;52.310;6.990;2023-04-06T07:13:05;101318.88;;;8.33;51.70
78685;BME280;68002;52.310;6.990;2023-04-06T07:15:30;101328.50;;;8.46;50.87
78685;BME280;68002;52.310;6.990;2023-04-06T07:17:55;101323.69;;;8.75;49.83
78685;BME280;68002;52.310;6.990;2023-04-06T07:20:20;101317.59;;;8.73;49.94
78685;BME280;68002;52.310;6.990;2023-04-06T07:22:45;101314.44;;;9.02;50.65
78685;BME280;68002;52.310;6.990;2023-04-06T07:25:11;101317.03;;;9.26;49.07
78685;BME280;68002;52.310;6.990;2023-04-06T07:27:36;101313.38;;;9.38;48.19
78685;BME280;68002;52.310;6.990;2023-04-06T07:30:01;101310.72;;;9.60;46.89
78685;BME280;68002;52.310;6.990;2023-04-06T07:32:27;101302.13;;;9.68;47.13
78685;BME280;68002;52.310;6.990;2023-04-06T07:34:52;101317.28;;;9.89;47.51
78685;BME280;68002;52.310;6.990;2023-04-06T07:37:17;101317.72;;;10.28;47.10
78685;BME280;68002;52.310;6.990;2023-04-06T07:39:42;101317.03;;;10.57;45.11
78685;BME280;68002;52.310;6.990;2023-04-06T07:42:08;101312.72;;;10.66;44.70
78685;BME280;68002;52.310;6.990;2023-04-06T07:44:33;101317.53;;;10.83;45.64
78685;BME280;68002;52.310;6.990;2023-04-06T07:46:58;101304.53;;;11.20;43.99
78685;BME280;68002;52.310;6.990;2023-04-06T07:49:23;101302.72;;;11.20;44.25
78685;BME280;68002;52.310;6.990;2023-04-06T07:51:49;101300.38;;;11.57;43.72
78685;BME280;68002;52.310;6.990;2023-04-06T07:54:14;101296.28;;;11.92;42.23
78685;BME280;68002;52.310;6.990;2023-04-06T07:56:39;101299.03;;;12.11;40.87
78685;BME280;68002;52.310;6.990;2023-04-06T07:59:04;101296.81;;;12.26;41.63
78685;BME280;68002;52.310;6.990;2023-04-06T08:01:30;101301.06;;;12.38;40.66
78685;BME280;68002;52.310;6.990;2023-04-06T08:03:56;101298.94;;;12.42;39.90
78685;BME280;68002;52.310;6.990;2023-04-06T08:06:21;101292.19;;;12.66;39.81
78685;BME280;68002;52.310;6.990;2023-04-06T08:08:46;101287.66;;;12.76;39.99
78685;BME280;68002;52.310;6.990;2023-04-06T08:11:12;101290.31;;;12.95;39.90
78685;BME280;68002;52.310;6.990;2023-04-06T08:13:37;101292.88;;;13.16;39.96
78685;BME280;68002;52.310;6.990;2023-04-06T08:16:02;101287.88;;;13.40;39.77
78685;BME280;68002;52.310;6.990;2023-04-06T08:18:28;101276.44;;;13.65;38.88
78685;BME280;68002;52.310;6.990;2023-04-06T08:20:54;101289.91;;;13.92;38.05
78685;BME280;68002;52.310;6.990;2023-04-06T08:23:19;101288.25;;;14.09;37.91
78685;BME280;68002;52.310;6.990;2023-04-06T08:25:44;101289.88;;;14.20;37.14
78685;BME280;68002;52.310;6.990;2023-04-06T08:28:10;101284.78;;;14.44;35.55
78685;BME280;68002;52.310;6.990;2023-04-06T08:30:35;101281.56;;;14.58;34.79
78685;BME280;68002;52.310;6.990;2023-04-06T08:33:01;101273.56;;;14.66;34.26
78685;BME280;68002;52.310;6.990;2023-04-06T08:35:27;101272.09;;;14.71;34.97
78685;BME280;68002;52.310;6.990;2023-04-06T08:37:52;101261.28;;;14.89;34.92
78685;BME280;68002;52.310;6.990;2023-04-06T08:40:19;101271.13;;;14.98;34.09
78685;BME280;68002;52.310;6.990;2023-04-06T08:42:49;101271.88;;;15.08;34.61
78685;BME280;68002;52.310;6.990;2023-04-06T08:45:16;101270.00;;;15.52;33.96
78685;BME280;68002;52.310;6.990;2023-04-06T08:47:42;101257.13;;;15.71;31.84
78685;BME280;68002;52.310;6.990;2023-04-06T08:50:08;101271.84;;;15.85;31.32
78685;BME280;68002;52.310;6.990;2023-04-06T08:52:33;101267.72;;;16.06;31.00
78685;BME280;68002;52.310;6.990;2023-04-06T08:54:59;101260.38;;;16.33;31.04
78685;BME280;68002;52.310;6.990;2023-04-06T08:57:25;101257.00;;;16.47;30.65
78685;BME280;68002;52.310;6.990;2023-04-06T08:59:51;101267.53;;;16.50;30.86
78685;BME280;68002;52.310;6.990;2023-04-06T09:02:18;101255.31;;;16.38;29.82
78685;BME280;68002;52.310;6.990;2023-04-06T09:04:46;101257.16;;;16.29;29.92
78685;BME280;68002;52.310;6.990;2023-04-06T09:07:14;101260.22;;;16.42;29.80
78685;BME280;68002;52.310;6.990;2023-04-06T09:09:39;101255.38;;;16.62;30.52
78685;BME280;68002;52.310;6.990;2023-04-06T09:12:04;101256.41;;;16.77;29.48
78685;BME280;68002;52.310;6.990;2023-04-06T09:14:37;101258.22;;;16.68;28.63
78685;BME280;68002;52.310;6.990;2023-04-06T09:17:03;101247.41;;;16.92;27.77
78685;BME280;68002;52.310;6.990;2023-04-06T09:19:28;101241.16;;;17.00;28.64
78685;BME280;68002;52.310;6.990;2023-04-06T09:22:06;101246.56;;;17.08;28.09
78685;BME280;68002;52.310;6.990;2023-04-06T09:24:45;101246.94;;;16.97;27.86
78685;BME280;68002;52.310;6.990;2023-04-06T09:27:12;101240.16;;;16.53;28.74
78685;BME280;68002;52.310;6.990;2023-04-06T09:29:37;101239.84;;;16.72;28.90
78685;BME280;68002;52.310;6.990;2023-04-06T09:32:06;101233.03;;;17.24;28.92
78685;BME280;68002;52.310;6.990;2023-04-06T09:34:33;101229.63;;;17.30;28.36
78685;BME280;68002;52.310;6.990;2023-04-06T09:36:58;101242.47;;;17.28;27.72
78685;BME280;68002;52.310;6.990;2023-04-06T09:39:24;101237.78;;;17.06;28.06
78685;BME280;68002;52.310;6.990;2023-04-06T09:41:53;101235.09;;;16.74;27.69
78685;BME280;68002;52.310;6.990;2023-04-06T09:44:18;101230.34;;;16.44;27.51
78685;BME280;68002;52.310;6.990;2023-04-06T09:46:45;101232.06;;;15.87;28.21
78685;BME280;68002;52.310;6.990;2023-04-06T09:49:11;101229.13;;;15.39;29.22
78685;BME280;68002;52.310;6.990;2023-04-06T09:51:44;101231.13;;;15.37;29.23
78685;BME280;68002;52.310;6.990;2023-04-06T09:54:11;101236.31;;;15.30;29.46
78685;BME280;68002;52.310;6.990;2023-04-06T09:56:46;101223.00;;;15.29;28.27
78685;BME280;68002;52.310;6.990;2023-04-06T09:59:39;101226.88;;;15.00;29.48
78685;BME280;68002;52.310;6.990;2023-04-06T10:05:20;101227.44;;;15.71;28.59
78685;BME280;68002;52.310;6.990;2023-04-06T10:07:48;101221.53;;;16.09;28.68
78685;BME280;68002;52.310;6.990;2023-04-06T10:10:16;101218.53;;;16.37;27.86
78685;BME280;68002;52.310;6.990;2023-04-06T10:12:41;101213.94;;;16.21;27.43
78685;BME280;68002;52.310;6.990;2023-04-06T10:15:07;101207.78;;;15.87;27.16
78685;BME280;68002;52.310;6.990;2023-04-06T10:17:33;101212.91;;;15.64;27.70
78685;BME280;68002;52.310;6.990;2023-04-06T10:22:54;101209.72;;;15.61;28.37
78685;BME280;68002;52.310;6.990;2023-04-06T10:25:27;101207.13;;;16.01;28.23
78685;BME280;68002;52.310;6.990;2023-04-06T10:27:59;101210.13;;;16.48;27.10
78685;BME280;68002;52.310;6.990;2023-04-06T10:30:25;101204.06;;;16.70;27.37
78685;BME280;68002;52.310;6.990;2023-04-06T10:32:50;101204.53;;;16.89;26.91
78685;BME280;68002;52.310;6.990;2023-04-06T10:35:15;101196.28;;;16.67;25.90
78685;BME280;68002;52.310;6.990;2023-04-06T10:40:23;101213.78;;;16.47;27.64
78685;BME280;68002;52.310;6.990;2023-04-06T10:42:49;101195.63;;;16.57;26.28
78685;BME280;68002;52.310;6.990;2023-04-06T10:45:31;101196.94;;;17.01;26.66
78685;BME280;68002;52.310;6.990;2023-04-06T10:47:56;101203.28;;;17.16;25.85
78685;BME280;68002;52.310;6.990;2023-04-06T10:50:22;101201.47;;;16.92;25.33
78685;BME280;68002;52.310;6.990;2023-04-06T10:52:58;101194.34;;;16.03;26.18
78685;BME280;68002;52.310;6.990;2023-04-06T10:55:25;101184.66;;;15.84;26.52
78685;BME280;68002;52.310;6.990;2023-04-06T10:57:51;101190.41;;;15.81;26.14
78685;BME280;68002;52.310;6.990;2023-04-06T11:00:17;101192.78;;;16.00;26.24
78685;BME280;68002;52.310;6.990;2023-04-06T11:02:42;101188.44;;;16.16;26.06
78685;BME280;68002;52.310;6.990;2023-04-06T11:05:08;101180.56;;;16.46;25.99
78685;BME280;68002;52.310;6.990;2023-04-06T11:07:33;101185.63;;;16.89;26.13
78685;BME280;68002;52.310;6.990;2023-04-06T11:09:58;101181.41;;;17.50;24.83
78685;BME280;68002;52.310;6.990;2023-04-06T11:12:25;101182.28;;;17.34;25.07
78685;BME280;68002;52.310;6.990;2023-04-06T11:15:00;101188.13;;;16.83;24.32
78685;BME280;68002;52.310;6.990;2023-04-06T11:17:26;101180.38;;;16.24;25.47
78685;BME280;68002;52.310;6.990;2023-04-06T11:19:51;101178.38;;;16.58;25.30
78685;BME280;68002;52.310;6.990;2023-04-06T11:22:16;101175.69;;;16.66;25.47
78685;BME280;68002;52.310;6.990;2023-04-06T11:24:41;101174.63;;;16.99;25.44
78685;BME280;68002;52.310;6.990;2023-04-06T11:27:07;101169.53;;;17.04;25.02
78685;BME280;68002;52.310;6.990;2023-04-06T11:29:32;101170.09;;;17.38;25.38
78685;BME280;68002;52.310;6.990;2023-04-06T11:31:59;101180.00;;;17.62;25.39
78685;BME280;68002;52.310;6.990;2023-04-06T11:34:25;101170.69;;;17.95;24.65
78685;BME280;68002;52.310;6.990;2023-04-06T11:36:55;101172.41;;;17.96;24.12
78685;BME280;68002;52.310;6.990;2023-04-06T11:39:23;101175.13;;;17.88;24.43
78685;BME280;68002;52.310;6.990;2023-04-06T11:41:49;101165.19;;;17.42;23.83
78685;BME280;68002;52.310;6.990;2023-04-06T11:44:14;101167.09;;;17.25;25.06
78685;BME280;68002;52.310;6.990;2023-04-06T11:46:40;101152.09;;;17.23;24.30
78685;BME280;68002;52.310;6.990;2023-04-06T11:49:05;101156.13;;;17.27;24.46
78685;BME280;68002;52.310;6.990;2023-04-06T11:51:35;101153.63;;;17.17;24.85
78685;BME280;68002;52.310;6.990;2023-04-06T11:54:01;101153.94;;;17.22;25.30
78685;BME280;68002;52.310;6.990;2023-04-06T11:56:29;101153.09;;;17.22;24.71
78685;BME280;68002;52.310;6.990;2023-04-06T11:58:56;101146.25;;;16.95;24.95
78685;BME280;68002;52.310;6.990;2023-04-06T12:01:22;101144.84;;;17.07;25.44
78685;BME280;68002;52.310;6.990;2023-04-06T12:03:47;101140.41;;;17.22;24.81
78685;BME280;68002;52.310;6.990;2023-04-06T12:06:13;101140.19;;;17.48;24.97
78685;BME280;68002;52.310;6.990;2023-04-06T12:08:38;101130.66;;;17.13;24.68
78685;BME280;68002;52.310;6.990;2023-04-06T12:11:03;101141.56;;;17.36;25.41
78685;BME280;68002;52.310;6.990;2023-04-06T12:13:28;101136.09;;;17.52;25.63
78685;BME280;68002;52.310;6.990;2023-04-06T12:15:54;101139.84;;;17.43;25.72
78685;BME280;68002;52.310;6.990;2023-04-06T12:18:19;101132.91;;;17.40;25.57
78685;BME280;68002;52.310;6.990;2023-04-06T12:20:44;101133.09;;;17.31;25.39
78685;BME280;68002;52.310;6.990;2023-04-06T12:23:09;101128.69;;;16.99;25.69
78685;BME280;68002;52.310;6.990;2023-04-06T12:25:34;101124.31;;;16.82;26.27
78685;BME280;68002;52.310;6.990;2023-04-06T12:28:00;101129.38;;;16.85;26.79
78685;BME280;68002;52.310;6.990;2023-04-06T12:30:25;101125.84;;;16.84;26.38
78685;BME280;68002;52.310;6.990;2023-04-06T12:32:50;101129.00;;;17.04;26.43
78685;BME280;68002;52.310;6.990;2023-04-06T12:35:16;101129.38;;;16.85;26.53
78685;BME280;68002;52.310;6.990;2023-04-06T12:37:41;101128.00;;;16.97;26.75
78685;BME280;68002;52.310;6.990;2023-04-06T12:40:07;101129.06;;;16.80;26.71
78685;BME280;68002;52.310;6.990;2023-04-06T12:42:32;101127.56;;;16.61;27.72
78685;BME280;68002;52.310;6.990;2023-04-06T12:44:57;101130.75;;;16.25;27.52
78685;BME280;68002;52.310;6.990;2023-04-06T12:47:22;101132.44;;;16.34;28.00
78685;BME280;68002;52.310;6.990;2023-04-06T12:49:47;101134.47;;;16.32;27.57
78685;BME280;68002;52.310;6.990;2023-04-06T12:52:13;101132.09;;;16.29;27.60
78685;BME280;68002;52.310;6.990;2023-04-06T12:54:38;101117.78;;;16.52;27.20